createdAt,value
2019-01-26T00:01:36.165Z,152.57
2019-01-26T00:04:06.859Z,62.93
2019-01-26T00:06:35.337Z,167.63
2019-01-26T00:09:06.951Z,271.43
2019-01-26T00:11:35.379Z,173.27
2019-01-26T00:14:04.177Z,103.57
2019-01-26T00:16:32.642Z,185.33
2019-01-26T00:19:01.071Z,148.03
2019-01-26T00:21:29.491Z,163.07
2019-01-26T00:23:59.029Z,112.83
2019-01-26T00:26:27.453Z,82.77
2019-01-26T00:28:55.882Z,141.20
2019-01-26T00:31:24.326Z,144.97
2019-01-26T00:33:52.756Z,87.53
2019-01-26T00:36:21.232Z,81.03
2019-01-26T00:38:49.709Z,82.87
2019-01-26T00:41:18.154Z,74.33
2019-01-26T00:43:46.578Z,102.57
2019-01-26T00:46:15.038Z,99.33
2019-01-26T00:48:43.485Z,41.67
2019-01-26T00:51:11.925Z,90.53
2019-01-26T00:53:40.346Z,145.40
2019-01-26T00:56:08.795Z,113.40
2019-01-26T00:58:37.255Z,96.47
2019-01-26T01:01:05.751Z,83.70
2019-01-26T01:03:34.250Z,55.50
2019-01-26T01:06:02.719Z,63.60
2019-01-26T01:08:31.241Z,83.53
2019-01-26T01:10:59.769Z,53.20
2019-01-26T01:13:28.216Z,57.27
2019-01-26T01:15:56.695Z,92.73
2019-01-26T01:18:25.155Z,44.37
2019-01-26T01:20:53.641Z,93.30
2019-01-26T01:23:22.100Z,81.83
2019-01-26T01:25:50.551Z,102.30
2019-01-26T01:28:18.996Z,79.17
2019-01-26T01:30:47.414Z,136.30
2019-01-26T01:33:15.865Z,97.73
2019-01-26T01:35:44.325Z,138.33
2019-01-26T01:39:04.445Z,117.73
2019-01-26T01:41:32.867Z,116.33
2019-01-26T01:44:01.407Z,82.37
2019-01-26T01:46:29.867Z,80.03
2019-01-26T01:48:58.294Z,83.97
2019-01-26T01:51:26.814Z,48.30
2019-01-26T01:53:55.323Z,22.83
2019-01-26T01:56:23.782Z,97.10
2019-01-26T01:58:52.204Z,89.87
2019-01-26T02:01:20.626Z,40.87
2019-01-26T02:03:49.138Z,102.43
2019-01-26T02:06:17.592Z,72.17
2019-01-26T02:08:46.015Z,82.37
2019-01-26T02:11:14.471Z,88.57
2019-01-26T02:13:42.898Z,136.77
2019-01-26T02:16:11.400Z,106.23
2019-01-26T02:18:39.848Z,98.63
2019-01-26T02:21:08.303Z,71.17
2019-01-26T02:23:36.738Z,72.67
2019-01-26T02:26:05.191Z,28.83
2019-01-26T02:28:33.638Z,41.00
2019-01-26T02:31:02.177Z,79.23
2019-01-26T02:33:30.617Z,61.83
2019-01-26T02:35:59.059Z,71.83
2019-01-26T02:38:28.071Z,51.60
2019-01-26T02:40:56.506Z,42.80
2019-01-26T02:43:24.952Z,38.20
2019-01-26T02:45:53.431Z,50.70
2019-01-26T02:48:21.885Z,22.47
2019-01-26T02:50:50.311Z,39.83
2019-01-26T02:53:18.827Z,26.10
2019-01-26T02:55:47.250Z,63.20
2019-01-26T02:58:15.698Z,75.73
2019-01-26T03:00:44.168Z,58.40
2019-01-26T03:03:12.723Z,71.17
2019-01-26T03:05:41.180Z,34.77
2019-01-26T03:08:09.681Z,64.03
2019-01-26T03:10:38.212Z,42.23
2019-01-26T03:13:06.804Z,27.87
2019-01-26T03:15:35.223Z,68.50
2019-01-26T03:18:03.936Z,35.67
2019-01-26T03:20:32.522Z,84.07
2019-01-26T03:23:00.959Z,30.03
2019-01-26T03:25:29.381Z,14.47
2019-01-26T03:27:57.828Z,46.83
2019-01-26T03:30:26.249Z,41.57
2019-01-26T03:32:54.791Z,26.00
2019-01-26T03:35:23.283Z,66.23
2019-01-26T03:37:51.725Z,53.60
2019-01-26T03:40:21.895Z,49.27
2019-01-26T03:42:50.415Z,20.60
2019-01-26T03:45:18.840Z,36.87
2019-01-26T03:47:47.406Z,32.93
2019-01-26T03:50:17.311Z,47.23
2019-01-26T03:52:45.734Z,48.70
2019-01-26T03:55:17.264Z,25.40
2019-01-26T03:57:45.688Z,46.43
2019-01-26T04:00:17.554Z,43.03
2019-01-26T04:02:46.042Z,38.37
2019-01-26T04:05:14.771Z,78.70
2019-01-26T04:07:43.556Z,42.17
2019-01-26T04:10:14.497Z,43.50
2019-01-26T04:13:02.314Z,31.70
2019-01-26T04:15:30.772Z,41.67
2019-01-26T04:17:59.191Z,37.53
2019-01-26T04:20:27.641Z,18.67
2019-01-26T04:22:56.082Z,45.33
2019-01-26T04:25:24.508Z,29.27
2019-01-26T04:27:52.944Z,41.43
2019-01-26T04:30:22.412Z,33.83
2019-01-26T04:32:50.863Z,43.70
2019-01-26T04:35:19.286Z,42.77
2019-01-26T04:37:47.733Z,41.60
2019-01-26T04:40:18.167Z,30.50
2019-01-26T04:42:46.734Z,20.27
2019-01-26T04:45:18.233Z,30.27
2019-01-26T04:47:46.955Z,17.10
2019-01-26T04:50:18.269Z,26.80
2019-01-26T04:52:46.743Z,33.23
2019-01-26T04:55:17.300Z,28.07
2019-01-26T04:57:45.798Z,41.97
2019-01-26T05:00:17.528Z,35.30
2019-01-26T05:02:45.979Z,27.80
2019-01-26T05:05:14.532Z,11.90
2019-01-26T05:07:43.048Z,29.03
2019-01-26T05:10:14.676Z,13.07
2019-01-26T05:12:43.192Z,6.37
2019-01-26T05:15:13.367Z,12.77
2019-01-26T05:17:41.951Z,19.20
2019-01-26T05:20:22.191Z,15.13
2019-01-26T05:22:50.688Z,10.07
2019-01-26T05:25:19.148Z,16.53
2019-01-26T05:27:47.659Z,14.73
2019-01-26T05:30:24.268Z,11.80
2019-01-26T05:32:52.777Z,9.47
2019-01-26T05:35:21.216Z,16.03
2019-01-26T05:37:49.666Z,6.83
2019-01-26T05:40:18.836Z,27.93
2019-01-26T05:42:47.340Z,21.13
2019-01-26T05:45:20.739Z,17.97
2019-01-26T05:47:49.743Z,11.67
2019-01-26T05:50:22.871Z,24.33
2019-01-26T05:52:51.316Z,10.03
2019-01-26T05:55:19.816Z,19.93
2019-01-26T05:57:48.349Z,28.87
2019-01-26T06:00:21.615Z,28.53
2019-01-26T06:02:50.129Z,10.77
2019-01-26T06:05:18.554Z,15.10
2019-01-26T06:07:47.233Z,18.77
2019-01-26T06:10:15.803Z,15.03
2019-01-26T06:12:44.219Z,13.37
2019-01-26T06:15:43.245Z,19.43
2019-01-26T06:18:11.680Z,8.60
2019-01-26T06:20:40.127Z,12.53
2019-01-26T06:23:08.576Z,26.80
2019-01-26T06:25:37.071Z,24.50
2019-01-26T06:28:05.543Z,19.27
2019-01-26T06:30:34.031Z,15.60
2019-01-26T06:33:02.466Z,30.73
2019-01-26T06:35:30.932Z,25.47
2019-01-26T06:37:59.377Z,26.13
2019-01-26T06:40:27.822Z,20.10
2019-01-26T06:42:56.258Z,17.70
2019-01-26T06:45:24.786Z,36.80
2019-01-26T06:47:53.211Z,26.30
2019-01-26T06:50:24.909Z,24.43
2019-01-26T06:52:53.353Z,22.27
2019-01-26T06:55:21.867Z,16.03
2019-01-26T06:57:50.447Z,21.10
2019-01-26T07:00:21.964Z,29.53
2019-01-26T07:02:50.491Z,15.10
2019-01-26T07:08:15.492Z,22.73
2019-01-26T07:10:43.911Z,13.20
2019-01-26T07:13:12.360Z,24.37
2019-01-26T07:15:40.958Z,24.03
2019-01-26T07:18:10.203Z,24.90
2019-01-26T07:20:38.728Z,9.27
2019-01-26T07:23:07.244Z,15.83
2019-01-26T07:25:35.684Z,27.13
2019-01-26T07:28:04.268Z,41.50
2019-01-26T07:30:32.719Z,18.70
2019-01-26T07:33:01.198Z,17.10
2019-01-26T07:35:29.696Z,26.70
2019-01-26T07:37:58.175Z,26.97
2019-01-26T07:40:26.651Z,28.27
2019-01-26T07:42:55.071Z,17.90
2019-01-26T07:45:23.604Z,21.50
2019-01-26T07:47:52.036Z,20.70
2019-01-26T07:50:23.136Z,27.80
2019-01-26T07:52:51.647Z,35.80
2019-01-26T07:55:20.236Z,14.10
2019-01-26T07:57:48.736Z,20.37
2019-01-26T08:00:22.507Z,20.73
2019-01-26T08:02:51.023Z,42.60
2019-01-26T08:05:19.647Z,14.67
2019-01-26T08:07:48.144Z,34.90
2019-01-26T08:10:24.862Z,33.33
2019-01-26T08:12:53.366Z,22.33
2019-01-26T08:15:24.658Z,32.30
2019-01-26T08:17:53.207Z,31.57
2019-01-26T08:20:22.289Z,24.37
2019-01-26T08:22:50.730Z,30.77
2019-01-26T08:25:19.239Z,19.50
2019-01-26T08:27:48.623Z,19.60
2019-01-26T08:30:24.620Z,27.60
2019-01-26T08:32:53.513Z,15.87
2019-01-26T08:35:22.032Z,16.87
2019-01-26T08:37:51.148Z,28.73
2019-01-26T08:40:39.244Z,22.23
2019-01-26T08:43:07.681Z,41.83
2019-01-26T08:45:36.134Z,21.33
2019-01-26T08:48:05.304Z,28.03
2019-01-26T08:50:33.783Z,21.77
2019-01-26T08:53:02.294Z,20.47
2019-01-26T08:55:30.755Z,23.67
2019-01-26T08:57:59.187Z,15.10
2019-01-26T09:00:28.866Z,16.80
2019-01-26T09:02:58.933Z,11.20
2019-01-26T09:05:34.626Z,26.60
2019-01-26T09:08:03.040Z,24.03
2019-01-26T09:10:31.672Z,24.90
2019-01-26T09:13:00.092Z,24.73
2019-01-26T09:15:29.434Z,26.80
2019-01-26T09:17:57.863Z,21.27
2019-01-26T09:20:26.317Z,19.07
2019-01-26T09:22:54.731Z,15.97
2019-01-26T09:25:23.196Z,30.17
2019-01-26T09:27:51.789Z,10.13
2019-01-26T09:30:21.555Z,20.57
2019-01-26T09:32:50.271Z,29.40
2019-01-26T09:35:19.537Z,21.50
2019-01-26T09:37:48.066Z,11.73
2019-01-26T09:40:18.962Z,16.17
2019-01-26T09:42:47.390Z,33.70
2019-01-26T09:45:18.186Z,20.73
2019-01-26T09:47:47.046Z,22.53
2019-01-26T09:50:16.223Z,19.77
2019-01-26T09:52:44.706Z,18.30
2019-01-26T09:55:15.626Z,27.30
2019-01-26T09:57:44.113Z,35.63
2019-01-26T10:00:24.630Z,37.10
2019-01-26T10:02:53.222Z,22.80
2019-01-26T10:05:21.630Z,21.77
2019-01-26T10:07:50.490Z,13.17
2019-01-26T10:10:20.184Z,23.97
2019-01-26T10:12:48.683Z,31.90
2019-01-26T10:15:22.533Z,23.33
2019-01-26T10:18:03.616Z,14.03
2019-01-26T10:23:29.748Z,12.90
2019-01-26T10:25:58.160Z,13.50
2019-01-26T10:28:26.601Z,10.03
2019-01-26T10:30:56.887Z,20.60
2019-01-26T10:33:25.303Z,18.67
2019-01-26T10:36:04.165Z,25.67
2019-01-26T10:38:34.223Z,15.50
2019-01-26T10:41:04.573Z,14.70
2019-01-26T10:43:34.750Z,14.37
2019-01-26T10:46:03.165Z,19.77
2019-01-26T10:48:31.675Z,14.23
2019-01-26T10:51:00.241Z,15.40
2019-01-26T10:53:28.743Z,17.90
2019-01-26T10:55:57.186Z,12.97
2019-01-26T10:58:25.603Z,9.60
2019-01-26T11:00:54.040Z,7.70
2019-01-26T11:03:22.476Z,11.00
2019-01-26T11:05:50.988Z,10.70
2019-01-26T11:08:19.464Z,8.97
2019-01-26T11:10:47.921Z,15.90
2019-01-26T11:13:16.327Z,13.90
2019-01-26T11:15:44.835Z,13.70
2019-01-26T11:18:13.255Z,12.60
2019-01-26T11:20:41.695Z,8.63
2019-01-26T11:23:10.110Z,15.50
2019-01-26T11:25:38.583Z,12.80
2019-01-26T11:28:07.000Z,16.80
2019-01-26T11:30:37.086Z,18.27
2019-01-26T11:33:05.547Z,18.17
2019-01-26T11:35:34.082Z,19.27
2019-01-26T11:38:02.500Z,19.00
2019-01-26T11:40:30.950Z,20.57
2019-01-26T11:42:59.378Z,20.30
2019-01-26T11:45:29.482Z,20.90
2019-01-26T11:50:47.482Z,17.43
2019-01-26T11:53:15.933Z,22.00
2019-01-26T11:55:46.034Z,13.97
2019-01-26T11:58:14.479Z,31.07
2019-01-26T12:00:45.246Z,22.33
2019-01-26T12:03:18.335Z,24.30
2019-01-26T12:05:48.399Z,18.67
2019-01-26T12:08:16.902Z,25.67
2019-01-26T12:10:45.331Z,20.07
2019-01-26T12:13:13.800Z,31.30
2019-01-26T12:15:42.335Z,27.93
2019-01-26T12:18:10.760Z,33.10
2019-01-26T12:20:39.193Z,32.63
2019-01-26T12:23:07.634Z,24.00
2019-01-26T12:25:36.066Z,26.47
2019-01-26T12:28:04.615Z,36.30
2019-01-26T12:30:33.072Z,29.83
2019-01-26T12:33:01.527Z,36.73
2019-01-26T12:35:29.955Z,36.60
2019-01-26T12:37:58.426Z,44.07
2019-01-26T12:40:27.124Z,36.10
2019-01-26T12:42:55.604Z,27.73
2019-01-26T12:45:24.266Z,29.83
2019-01-26T12:47:53.164Z,24.30
2019-01-26T12:50:22.255Z,16.93
2019-01-26T12:52:51.103Z,12.40
2019-01-26T12:55:21.179Z,20.50
2019-01-26T12:57:50.197Z,15.30
2019-01-26T13:00:48.375Z,11.00
2019-01-26T13:03:18.429Z,12.33
2019-01-26T13:05:47.353Z,10.27
2019-01-26T13:08:16.520Z,9.43
2019-01-26T13:10:55.007Z,7.03
2019-01-26T13:13:23.982Z,13.10
2019-01-26T13:15:52.952Z,9.30
2019-01-26T13:18:21.973Z,10.80
2019-01-26T13:20:50.867Z,10.10
2019-01-26T13:23:19.831Z,10.10
2019-01-26T13:25:53.824Z,17.80
2019-01-26T13:28:22.628Z,13.43
2019-01-26T13:30:52.309Z,7.33
2019-01-26T13:33:21.261Z,7.00
2019-01-26T13:35:50.210Z,8.07
2019-01-26T13:38:19.165Z,7.53
2019-01-26T13:40:47.992Z,5.80
2019-01-26T13:43:17.774Z,4.23
2019-01-26T13:45:46.842Z,8.50
2019-01-26T13:48:15.824Z,4.10
2019-01-26T13:50:44.901Z,2.83
2019-01-26T13:53:13.911Z,10.13
2019-01-26T13:55:42.798Z,8.80
2019-01-26T13:58:14.528Z,9.33
2019-01-26T14:00:43.456Z,5.20
2019-01-26T14:03:12.224Z,5.80
2019-01-26T14:05:42.493Z,7.00
2019-01-26T14:08:13.124Z,17.83
2019-01-26T14:10:44.910Z,6.23
2019-01-26T14:13:13.581Z,7.17
2019-01-26T14:15:42.249Z,3.90
2019-01-26T14:18:13.001Z,3.73
2019-01-26T14:20:41.666Z,7.67
2019-01-26T14:23:11.292Z,6.10
2019-01-26T14:25:39.993Z,6.73
2019-01-26T14:28:08.509Z,4.00
2019-01-26T14:30:43.035Z,9.47
2019-01-26T14:33:11.724Z,10.33
2019-01-26T14:35:42.019Z,8.30
2019-01-26T14:38:10.431Z,8.93
2019-01-26T14:40:39.870Z,9.17
2019-01-26T14:43:08.628Z,12.83
2019-01-26T14:45:37.352Z,16.13
2019-01-26T14:48:07.578Z,13.10
2019-01-26T14:50:36.228Z,16.90
2019-01-26T14:53:04.974Z,16.83
2019-01-26T14:55:34.084Z,12.87
2019-01-26T14:58:02.864Z,11.07
2019-01-26T15:00:38.566Z,16.40
2019-01-26T15:03:07.153Z,8.50
2019-01-26T15:05:35.839Z,13.77
2019-01-26T15:08:05.469Z,10.20
2019-01-26T15:10:34.153Z,12.87
2019-01-26T15:13:02.844Z,13.07
2019-01-26T15:15:32.350Z,11.27
2019-01-26T15:18:00.971Z,12.70
2019-01-26T15:20:35.112Z,14.90
2019-01-26T15:23:04.325Z,13.20
2019-01-26T15:25:33.121Z,15.53
2019-01-26T15:28:01.778Z,9.80
2019-01-26T15:30:38.450Z,8.67
2019-01-26T15:33:07.587Z,10.07
2019-01-26T15:35:36.262Z,15.23
2019-01-26T15:38:06.131Z,9.87
2019-01-26T15:40:34.825Z,14.10
2019-01-26T15:43:03.746Z,10.17
2019-01-26T15:45:35.098Z,11.90
2019-01-26T15:48:04.074Z,15.80
2019-01-26T15:50:32.657Z,15.23
2019-01-26T15:53:01.410Z,13.13
2019-01-26T15:55:30.454Z,6.90
2019-01-26T15:57:59.167Z,6.30
2019-01-26T16:00:33.094Z,11.00
2019-01-26T16:03:01.789Z,17.90
2019-01-26T16:05:31.021Z,15.50
2019-01-26T16:07:59.625Z,12.80
2019-01-26T16:10:28.385Z,10.10
2019-01-26T16:12:56.992Z,10.90
2019-01-26T16:15:46.377Z,4.33
2019-01-26T16:18:15.146Z,9.97
2019-01-26T16:20:43.806Z,6.37
2019-01-26T16:23:12.881Z,9.77
2019-01-26T16:25:41.870Z,13.60
2019-01-26T16:28:12.111Z,6.40
2019-01-26T16:30:41.100Z,7.27
2019-01-26T16:33:10.033Z,7.90
2019-01-26T16:35:42.681Z,9.90
2019-01-26T16:38:13.387Z,15.80
2019-01-26T16:40:47.945Z,8.40
2019-01-26T16:43:17.138Z,8.77
2019-01-26T16:45:45.808Z,7.67
2019-01-26T16:48:14.534Z,7.77
2019-01-26T16:50:42.998Z,8.43
2019-01-26T16:53:30.840Z,16.50
2019-01-26T16:55:59.340Z,5.70
2019-01-26T16:58:27.836Z,7.90
2019-01-26T17:00:56.464Z,8.80
2019-01-26T17:03:24.895Z,11.43
2019-01-26T17:05:53.361Z,6.27
2019-01-26T17:08:41.223Z,10.57
2019-01-26T17:11:09.734Z,9.63
2019-01-26T17:13:40.833Z,14.00
2019-01-26T17:16:09.760Z,10.30
2019-01-26T17:18:38.790Z,9.30
2019-01-26T17:21:18.373Z,9.60
2019-01-26T17:23:47.354Z,6.23
2019-01-26T17:26:16.312Z,6.97
2019-01-26T17:28:45.362Z,10.30
2019-01-26T17:31:33.516Z,11.40
2019-01-26T17:34:15.742Z,12.73
2019-01-26T17:36:56.697Z,14.50
2019-01-26T17:39:28.132Z,12.77
2019-01-26T17:41:56.667Z,18.30
2019-01-26T17:44:25.988Z,25.03
2019-01-26T17:46:57.259Z,12.63
2019-01-26T17:49:26.154Z,13.33
2019-01-26T17:51:55.054Z,14.10
2019-01-26T17:54:23.990Z,12.00
2019-01-26T17:56:53.585Z,10.63
2019-01-26T17:59:23.977Z,11.03
2019-01-26T18:01:54.108Z,12.17
2019-01-26T18:04:24.437Z,16.53
2019-01-26T18:06:54.932Z,13.67
2019-01-26T18:09:25.028Z,11.73
2019-01-26T18:11:54.504Z,16.23
2019-01-26T18:14:23.578Z,10.33
2019-01-26T18:16:52.190Z,10.03
2019-01-26T18:19:20.624Z,10.40
2019-01-26T18:21:49.111Z,13.50
2019-01-26T18:24:17.633Z,9.00
2019-01-26T18:26:46.112Z,14.33
2019-01-26T18:29:14.543Z,6.17
2019-01-26T18:31:42.974Z,11.43
2019-01-26T18:34:11.402Z,10.10
2019-01-26T18:36:40.026Z,12.43
2019-01-26T18:39:09.814Z,15.00
2019-01-26T18:41:38.546Z,16.70
2019-01-26T18:44:07.329Z,14.70
2019-01-26T18:46:35.866Z,12.60
2019-01-26T18:49:04.523Z,13.80
2019-01-26T18:51:33.117Z,10.60
2019-01-26T18:54:01.572Z,13.23
2019-01-26T18:56:30.066Z,8.30
2019-01-26T18:59:06.738Z,10.57
2019-01-26T19:01:35.240Z,4.40
2019-01-26T19:04:06.936Z,10.80
2019-01-26T19:06:37.024Z,11.80
2019-01-26T19:09:08.530Z,12.33
2019-01-26T19:11:37.168Z,9.37
2019-01-26T19:14:05.873Z,7.30
2019-01-26T19:16:34.615Z,9.33
2019-01-26T19:19:03.401Z,9.03
2019-01-26T19:21:32.814Z,7.30
2019-01-26T19:24:02.883Z,12.37
2019-01-26T19:26:34.359Z,6.20
2019-01-26T19:29:03.275Z,11.97
2019-01-26T19:31:32.192Z,11.50
2019-01-26T19:34:00.672Z,9.93
2019-01-26T19:36:29.236Z,11.30
2019-01-26T19:38:57.745Z,9.93
2019-01-26T19:41:26.317Z,7.53
2019-01-26T19:43:55.838Z,13.37
2019-01-26T19:46:24.729Z,10.50
2019-01-26T19:48:53.389Z,10.23
2019-01-26T19:51:22.218Z,11.47
2019-01-26T19:53:50.692Z,9.50
2019-01-26T19:56:19.235Z,10.13
2019-01-26T19:58:47.726Z,8.90
2019-01-26T20:01:16.219Z,11.63
2019-01-26T20:03:44.929Z,11.63
2019-01-26T20:06:15.132Z,15.13
2019-01-26T20:08:43.688Z,7.43
2019-01-26T20:11:12.211Z,10.07
2019-01-26T20:13:40.723Z,10.23
2019-01-26T20:16:09.254Z,9.90
2019-01-26T20:18:57.179Z,12.00
2019-01-26T20:21:26.120Z,5.30
2019-01-26T20:23:54.678Z,11.67
2019-01-26T20:26:23.155Z,8.50
2019-01-26T20:28:51.606Z,7.00
2019-01-26T20:31:20.139Z,6.57
2019-01-26T20:33:48.625Z,15.97
2019-01-26T20:36:17.054Z,4.70
2019-01-26T20:38:46.416Z,7.83
2019-01-26T20:41:15.431Z,5.10
2019-01-26T20:43:43.957Z,7.57
2019-01-26T20:46:12.419Z,6.90
2019-01-26T20:48:41.061Z,5.50
2019-01-26T20:51:09.578Z,6.30
2019-01-26T20:53:38.077Z,4.63
2019-01-26T20:56:06.626Z,5.77
2019-01-26T20:58:54.482Z,7.47
2019-01-26T21:01:22.980Z,4.70
2019-01-26T21:06:47.064Z,5.20
2019-01-26T21:09:15.848Z,3.80
2019-01-26T21:11:44.318Z,5.97
2019-01-26T21:14:12.869Z,6.37
2019-01-26T21:16:41.318Z,5.03
2019-01-26T21:19:09.829Z,4.57
2019-01-26T21:21:38.266Z,6.00
2019-01-26T21:24:07.163Z,4.37
2019-01-26T21:26:35.799Z,5.70
2019-01-26T21:29:05.414Z,11.50
2019-01-26T21:31:33.966Z,5.97
2019-01-26T21:34:02.419Z,6.73
2019-01-26T21:36:50.294Z,5.30
2019-01-26T21:39:21.327Z,5.80
2019-01-26T21:41:52.673Z,4.70
2019-01-26T21:46:50.672Z,4.97
2019-01-26T21:49:20.706Z,6.67
2019-01-26T21:51:49.973Z,6.50
2019-01-26T21:54:18.909Z,5.00
2019-01-26T21:56:48.110Z,6.70
2019-01-26T21:59:18.248Z,7.60
2019-01-26T22:01:47.253Z,6.40
2019-01-26T22:04:20.294Z,6.70
2019-01-26T22:06:49.179Z,5.77
2019-01-26T22:09:20.548Z,5.37
2019-01-26T22:11:49.612Z,6.40
2019-01-26T22:14:19.376Z,8.60
2019-01-26T22:16:49.725Z,5.07
2019-01-26T22:19:21.819Z,5.23
2019-01-26T22:21:49.839Z,6.07
2019-01-26T22:24:20.236Z,7.10
2019-01-26T22:27:08.518Z,5.37
2019-01-26T22:29:37.427Z,3.57
2019-01-26T22:32:08.127Z,5.00
2019-01-26T22:34:38.542Z,5.80
2019-01-26T22:37:10.315Z,5.30
2019-01-26T22:39:39.305Z,7.83
2019-01-26T22:42:08.662Z,4.90
2019-01-26T22:44:56.904Z,7.80
2019-01-26T22:47:25.893Z,6.17
2019-01-26T22:50:16.589Z,7.37
2019-01-26T22:52:46.248Z,5.63
2019-01-26T22:55:17.621Z,6.17
2019-01-26T22:57:46.628Z,20.50
2019-01-26T23:00:21.394Z,5.70
2019-01-26T23:02:50.636Z,4.97
2019-01-26T23:05:38.978Z,5.10
2019-01-26T23:08:08.054Z,4.20
2019-01-26T23:10:45.472Z,2.67
2019-01-26T23:13:39.042Z,3.73
2019-01-26T23:16:18.486Z,3.43
2019-01-26T23:18:57.817Z,5.60
2019-01-26T23:21:48.009Z,4.30
2019-01-26T23:24:39.830Z,4.20
2019-01-26T23:27:26.558Z,5.17
2019-01-26T23:30:13.263Z,4.33
2019-01-26T23:32:42.170Z,3.50
2019-01-26T23:35:11.525Z,4.00
2019-01-26T23:37:40.494Z,4.40
2019-01-26T23:40:10.555Z,2.90
2019-01-26T23:42:59.645Z,3.87
2019-01-26T23:45:28.608Z,3.60
2019-01-26T23:47:57.598Z,4.27
2019-01-26T23:50:28.066Z,2.57
2019-01-26T23:52:57.098Z,2.97
2019-01-26T23:55:26.081Z,3.80
2019-01-26T23:58:07.403Z,3.20
